createdAt,value
2017-09-30T00:00:34.333Z,1012.38
2017-09-30T00:01:43.659Z,1012.42
2017-09-30T00:02:53.315Z,1012.42
2017-09-30T00:04:02.973Z,1012.43
2017-09-30T00:05:11.939Z,1012.41
2017-09-30T00:06:20.752Z,1012.45
2017-09-30T00:07:29.727Z,1012.45
2017-09-30T00:08:39.333Z,1012.42
2017-09-30T00:09:48.625Z,1012.44
2017-09-30T00:10:57.624Z,1012.45
2017-09-30T00:12:07.556Z,1012.46
2017-09-30T00:13:16.864Z,1012.52
2017-09-30T00:14:25.856Z,1012.5
2017-09-30T00:15:34.533Z,1012.52
2017-09-30T00:16:43.262Z,1012.54
2017-09-30T00:17:52.888Z,1012.52
2017-09-30T00:19:02.184Z,1012.58
2017-09-30T00:20:10.844Z,1012.53
2017-09-30T00:21:20.139Z,1012.48
2017-09-30T00:22:29.152Z,1012.46
2017-09-30T00:23:38.479Z,1012.5
2017-09-30T00:24:48.433Z,1012.46
2017-09-30T00:25:57.171Z,1012.51
2017-09-30T00:27:06.783Z,1012.49
2017-09-30T00:28:15.780Z,1012.45
2017-09-30T00:29:25.435Z,1012.49
2017-09-30T00:30:34.101Z,1012.46
2017-09-30T00:31:43.422Z,1012.46
2017-09-30T00:32:53.084Z,1012.5
2017-09-30T00:34:02.394Z,1012.5
2017-09-30T00:35:11.840Z,1012.51
2017-09-30T00:36:21.152Z,1012.49
2017-09-30T00:37:29.827Z,1012.45
2017-09-30T00:38:39.174Z,1012.46
2017-09-30T00:39:48.163Z,1012.49
2017-09-30T00:40:56.967Z,1012.51
2017-09-30T00:42:05.964Z,1012.49
2017-09-30T00:43:14.982Z,1012.49
2017-09-30T00:44:24.333Z,1012.49
2017-09-30T00:45:33.622Z,1012.46
2017-09-30T00:46:42.913Z,1012.49
2017-09-30T00:47:51.888Z,1012.44
2017-09-30T00:49:01.173Z,1012.46
2017-09-30T00:50:10.502Z,1012.44
2017-09-30T00:51:19.806Z,1012.47
2017-09-30T00:52:29.274Z,1012.53
2017-09-30T00:53:37.947Z,1012.52
2017-09-30T00:54:47.260Z,1012.54
2017-09-30T00:55:56.608Z,1012.54
2017-09-30T00:57:05.282Z,1012.5
2017-09-30T00:58:14.554Z,1012.53
2017-09-30T00:59:23.216Z,1012.53
2017-09-30T01:00:32.521Z,1012.58
2017-09-30T01:01:41.812Z,1012.57
2017-09-30T01:02:50.499Z,1012.55
2017-09-30T01:03:59.957Z,1012.59
2017-09-30T01:05:09.253Z,1012.57
2017-09-30T01:06:17.936Z,1012.57
2017-09-30T01:07:26.941Z,1012.6
2017-09-30T01:08:35.591Z,1012.59
2017-09-30T01:09:44.567Z,1012.63
2017-09-30T01:10:53.949Z,1012.67
2017-09-30T01:12:03.289Z,1012.67
2017-09-30T01:13:11.973Z,1012.68
2017-09-30T01:14:20.699Z,1012.7
2017-09-30T01:15:29.535Z,1012.78
2017-09-30T01:16:38.512Z,1012.74
2017-09-30T01:17:47.495Z,1012.77
2017-09-30T01:18:56.540Z,1012.81
2017-09-30T01:20:05.638Z,1012.81
2017-09-30T01:21:15.990Z,1012.83
2017-09-30T01:22:25.300Z,1012.85
2017-09-30T01:23:34.323Z,1012.87
2017-09-30T01:24:43.631Z,1012.89
2017-09-30T01:25:52.949Z,1012.89
2017-09-30T01:27:02.139Z,1012.89
2017-09-30T01:28:10.817Z,1012.89
2017-09-30T01:29:19.493Z,1012.89
2017-09-30T01:30:28.231Z,1012.92
2017-09-30T01:31:37.879Z,1012.91
2017-09-30T01:32:47.700Z,1012.88
2017-09-30T01:33:56.697Z,1012.88
2017-09-30T01:35:06.035Z,1012.87
2017-09-30T01:36:15.071Z,1012.85
2017-09-30T01:37:23.860Z,1012.82
2017-09-30T01:38:32.865Z,1012.8
2017-09-30T01:39:41.558Z,1012.85
2017-09-30T01:40:50.229Z,1012.82
2017-09-30T01:41:59.239Z,1012.86
2017-09-30T01:43:08.257Z,1012.97
2017-09-30T01:44:17.277Z,1013.05
2017-09-30T01:45:26.275Z,1013.05
2017-09-30T01:46:35.330Z,1012.93
2017-09-30T01:47:44.656Z,1012.92
2017-09-30T01:48:53.356Z,1012.85
2017-09-30T01:50:02.328Z,1012.84
2017-09-30T01:51:11.303Z,1012.86
2017-09-30T01:52:20.605Z,1012.91
2017-09-30T01:53:29.936Z,1012.93
2017-09-30T01:54:38.959Z,1012.93
2017-09-30T01:55:48.433Z,1012.93
2017-09-30T01:56:57.425Z,1013.01
2017-09-30T01:58:06.725Z,1012.99
2017-09-30T01:59:15.703Z,1013.03
2017-09-30T02:00:24.379Z,1013.01
2017-09-30T02:01:34.155Z,1013.07
2017-09-30T02:02:43.140Z,1013.12
2017-09-30T02:03:51.823Z,1013.04
2017-09-30T02:05:00.494Z,1012.95
2017-09-30T02:06:09.167Z,1012.93
2017-09-30T02:07:18.983Z,1012.81
2017-09-30T02:08:27.989Z,1012.82
2017-09-30T02:09:36.975Z,1012.88
2017-09-30T02:10:46.911Z,1012.82
2017-09-30T02:11:56.228Z,1012.79
2017-09-30T02:13:05.870Z,1012.75
2017-09-30T02:14:14.860Z,1012.7
2017-09-30T02:15:23.856Z,1012.67
2017-09-30T02:16:33.537Z,1012.64
2017-09-30T02:17:42.287Z,1012.64
2017-09-30T02:18:51.424Z,1012.64
2017-09-30T02:20:00.407Z,1012.62
2017-09-30T02:21:09.419Z,1012.59
2017-09-30T02:22:18.425Z,1012.61
2017-09-30T02:23:27.417Z,1012.59
2017-09-30T02:24:37.041Z,1012.59
2017-09-30T02:25:46.351Z,1012.58
2017-09-30T02:26:55.374Z,1012.62
2017-09-30T02:28:04.356Z,1012.62
2017-09-30T02:29:13.040Z,1012.65
2017-09-30T02:30:21.723Z,1012.69
2017-09-30T02:31:31.356Z,1012.69
2017-09-30T02:32:40.669Z,1012.66
2017-09-30T02:33:50.011Z,1012.62
2017-09-30T02:34:58.721Z,1012.58
2017-09-30T02:36:07.459Z,1012.54
2017-09-30T02:37:16.146Z,1012.53
2017-09-30T02:38:25.811Z,1012.54
2017-09-30T02:39:34.467Z,1012.54
2017-09-30T02:40:43.456Z,1012.54
2017-09-30T02:41:52.451Z,1012.52
2017-09-30T02:43:01.455Z,1012.53
2017-09-30T02:44:10.832Z,1012.57
2017-09-30T02:45:20.149Z,1012.53
2017-09-30T02:46:29.186Z,1012.47
2017-09-30T02:47:38.163Z,1012.44
2017-09-30T02:48:47.478Z,1012.41
2017-09-30T02:49:56.484Z,1012.43
2017-09-30T02:51:05.526Z,1012.39
2017-09-30T02:52:14.843Z,1012.35
2017-09-30T02:53:23.611Z,1012.37
2017-09-30T02:54:32.581Z,1012.3
2017-09-30T02:55:41.255Z,1012.3
2017-09-30T02:56:50.560Z,1012.28
2017-09-30T02:57:59.228Z,1012.22
2017-09-30T02:59:08.108Z,1012.13
2017-09-30T03:00:17.143Z,1012.06
2017-09-30T03:01:25.825Z,1012.03
2017-09-30T03:02:34.794Z,1012.02
2017-09-30T03:03:43.764Z,1012.04
2017-09-30T03:04:52.464Z,1012
2017-09-30T03:06:01.445Z,1011.97
2017-09-30T03:07:10.668Z,1011.97
2017-09-30T03:08:20.013Z,1011.91
2017-09-30T03:09:29.661Z,1011.87
2017-09-30T03:10:39.443Z,1011.82
2017-09-30T03:11:49.111Z,1011.84
2017-09-30T03:12:58.414Z,1011.89
2017-09-30T03:14:07.429Z,1011.9
2017-09-30T03:15:16.421Z,1011.93
2017-09-30T03:16:26.171Z,1012
2017-09-30T03:17:35.164Z,1011.96
2017-09-30T03:18:44.481Z,1011.96
2017-09-30T03:19:53.459Z,1011.94
2017-09-30T03:21:02.750Z,1011.97
2017-09-30T03:22:12.100Z,1011.95
2017-09-30T03:23:21.437Z,1011.96
2017-09-30T03:24:30.770Z,1012.01
2017-09-30T03:25:39.776Z,1011.98
2017-09-30T03:26:49.082Z,1011.99
2017-09-30T03:27:57.891Z,1011.99
2017-09-30T03:29:06.598Z,1011.95
2017-09-30T03:30:15.920Z,1011.96
2017-09-30T03:31:24.907Z,1011.93
2017-09-30T03:32:34.200Z,1011.92
2017-09-30T03:33:43.518Z,1011.93
2017-09-30T03:34:52.820Z,1011.91
2017-09-30T03:36:02.473Z,1011.88
2017-09-30T03:37:12.093Z,1011.9
2017-09-30T03:38:21.789Z,1011.92
2017-09-30T03:39:31.197Z,1011.95
2017-09-30T03:40:39.866Z,1011.96
2017-09-30T03:41:48.826Z,1011.97
2017-09-30T03:42:57.803Z,1011.98
2017-09-30T03:44:06.819Z,1012.01
2017-09-30T03:45:16.251Z,1012.05
2017-09-30T03:46:25.297Z,1012.07
2017-09-30T03:47:34.304Z,1012.04
2017-09-30T03:48:43.609Z,1012.15
2017-09-30T03:49:52.955Z,1012.17
2017-09-30T03:51:02.441Z,1012.21
2017-09-30T03:52:11.460Z,1012.17
2017-09-30T03:53:20.135Z,1012.07
2017-09-30T03:54:28.823Z,1012
2017-09-30T03:55:38.105Z,1011.98
2017-09-30T03:56:47.492Z,1011.93
2017-09-30T03:57:56.488Z,1011.93
2017-09-30T03:59:05.795Z,1011.87
2017-09-30T04:00:14.492Z,1011.81
2017-09-30T04:01:23.528Z,1011.77
2017-09-30T04:02:32.851Z,1011.67
2017-09-30T04:03:42.227Z,1011.61
2017-09-30T04:04:51.198Z,1011.62
2017-09-30T04:06:00.165Z,1011.59
2017-09-30T04:07:09.153Z,1011.57
2017-09-30T04:08:18.126Z,1011.49
2017-09-30T04:09:27.470Z,1011.53
2017-09-30T04:10:36.486Z,1011.53
2017-09-30T04:11:46.102Z,1011.52
2017-09-30T04:12:55.116Z,1011.53
2017-09-30T04:14:04.346Z,1011.54
2017-09-30T04:15:13.991Z,1011.53
2017-09-30T04:16:23.314Z,1011.52
2017-09-30T04:17:32.286Z,1011.46
2017-09-30T04:18:40.941Z,1011.43
2017-09-30T04:19:50.962Z,1011.42
2017-09-30T04:20:59.678Z,1011.38
2017-09-30T04:22:09.278Z,1011.35
2017-09-30T04:23:17.948Z,1011.38
2017-09-30T04:24:26.670Z,1011.42
2017-09-30T04:25:36.383Z,1011.47
2017-09-30T04:26:45.059Z,1011.55
2017-09-30T04:27:54.042Z,1011.59
2017-09-30T04:29:02.701Z,1011.59
2017-09-30T04:30:12.028Z,1011.59
2017-09-30T04:31:21.317Z,1011.58
2017-09-30T04:32:29.982Z,1011.58
2017-09-30T04:33:39.000Z,1011.61
2017-09-30T04:34:47.694Z,1011.59
2017-09-30T04:35:56.680Z,1011.6
2017-09-30T04:37:05.776Z,1011.61
2017-09-30T04:38:14.760Z,1011.61
2017-09-30T04:39:23.457Z,1011.58
2017-09-30T04:40:32.756Z,1011.57
2017-09-30T04:41:42.357Z,1011.56
2017-09-30T04:42:52.132Z,1011.58
2017-09-30T04:44:01.123Z,1011.57
2017-09-30T04:45:10.429Z,1011.59
2017-09-30T04:46:19.118Z,1011.55
2017-09-30T04:47:27.787Z,1011.54
2017-09-30T04:48:36.445Z,1011.53
2017-09-30T04:49:45.801Z,1011.54
2017-09-30T04:50:54.808Z,1011.51
2017-09-30T04:52:03.484Z,1011.49
2017-09-30T04:53:13.136Z,1011.53
2017-09-30T04:54:22.305Z,1011.57
2017-09-30T04:55:31.937Z,1011.54
2017-09-30T04:56:40.899Z,1011.54
2017-09-30T04:57:50.834Z,1011.55
2017-09-30T04:58:59.896Z,1011.56
2017-09-30T05:00:09.048Z,1011.59
2017-09-30T05:01:18.660Z,1011.58
2017-09-30T05:02:27.343Z,1011.58
2017-09-30T05:03:36.008Z,1011.53
2017-09-30T05:04:45.638Z,1011.57
2017-09-30T05:05:55.419Z,1011.58
2017-09-30T05:07:04.444Z,1011.63
2017-09-30T05:08:14.361Z,1011.6
2017-09-30T05:09:23.667Z,1011.57
2017-09-30T05:10:32.702Z,1011.56
2017-09-30T05:11:42.517Z,1011.54
2017-09-30T05:12:51.186Z,1011.56
2017-09-30T05:14:00.552Z,1011.56
2017-09-30T05:15:09.277Z,1011.6
2017-09-30T05:16:18.255Z,1011.58
2017-09-30T05:17:27.386Z,1011.62
2017-09-30T05:18:36.367Z,1011.6
2017-09-30T05:19:45.978Z,1011.62
2017-09-30T05:20:55.264Z,1011.64
2017-09-30T05:22:03.951Z,1011.65
2017-09-30T05:23:13.249Z,1011.63
2017-09-30T05:24:21.933Z,1011.56
2017-09-30T05:25:30.584Z,1011.56
2017-09-30T05:26:39.589Z,1011.55
2017-09-30T05:27:48.599Z,1011.57
2017-09-30T05:28:57.887Z,1011.55
2017-09-30T05:30:07.311Z,1011.54
2017-09-30T05:31:15.976Z,1011.54
2017-09-30T05:32:24.656Z,1011.56
2017-09-30T05:33:33.624Z,1011.6
2017-09-30T05:34:43.030Z,1011.58
2017-09-30T05:35:52.028Z,1011.61
2017-09-30T05:37:00.689Z,1011.54
2017-09-30T05:38:09.981Z,1011.57
2017-09-30T05:39:19.344Z,1011.55
2017-09-30T05:40:28.366Z,1011.6
2017-09-30T05:41:37.380Z,1011.58
2017-09-30T05:42:46.375Z,1011.6
2017-09-30T05:43:55.653Z,1011.57
2017-09-30T05:45:04.306Z,1011.59
2017-09-30T05:46:13.578Z,1011.59
2017-09-30T05:47:22.907Z,1011.57
2017-09-30T05:48:32.218Z,1011.6
2017-09-30T05:49:41.213Z,1011.59
2017-09-30T05:50:50.214Z,1011.59
2017-09-30T05:51:59.660Z,1011.6
2017-09-30T05:53:08.705Z,1011.57
2017-09-30T05:54:17.716Z,1011.56
2017-09-30T05:55:26.731Z,1011.56
2017-09-30T05:56:35.387Z,1011.52
2017-09-30T05:57:44.684Z,1011.5
2017-09-30T05:58:53.662Z,1011.52
2017-09-30T06:00:02.339Z,1011.51
2017-09-30T06:01:11.021Z,1011.5
2017-09-30T06:02:20.319Z,1011.58
2017-09-30T06:03:29.785Z,1011.61
2017-09-30T06:04:38.464Z,1011.69
2017-09-30T06:05:47.756Z,1011.73
2017-09-30T06:06:57.064Z,1011.78
2017-09-30T06:08:06.358Z,1011.74
2017-09-30T06:09:15.708Z,1011.79
2017-09-30T06:10:25.624Z,1011.74
2017-09-30T06:11:34.617Z,1011.78
2017-09-30T06:12:43.605Z,1011.81
2017-09-30T06:13:53.217Z,1011.88
2017-09-30T06:15:02.358Z,1011.93
2017-09-30T06:16:11.336Z,1011.99
2017-09-30T06:17:20.010Z,1011.98
2017-09-30T06:18:28.654Z,1012
2017-09-30T06:19:38.258Z,1011.95
2017-09-30T06:20:47.394Z,1011.96
2017-09-30T06:21:56.681Z,1011.93
2017-09-30T06:23:05.969Z,1011.9
2017-09-30T06:24:14.633Z,1011.89
2017-09-30T06:25:23.313Z,1011.91
2017-09-30T06:26:32.620Z,1011.91
2017-09-30T06:27:42.235Z,1011.86
2017-09-30T06:28:50.894Z,1011.84
2017-09-30T06:29:59.879Z,1011.86
2017-09-30T06:31:08.534Z,1011.86
2017-09-30T06:32:17.511Z,1011.86
2017-09-30T06:33:26.798Z,1011.8
2017-09-30T06:34:35.777Z,1011.78
2017-09-30T06:35:44.787Z,1011.74
2017-09-30T06:36:55.373Z,1011.73
2017-09-30T06:38:05.111Z,1011.71
2017-09-30T06:39:14.109Z,1011.75
2017-09-30T06:40:22.781Z,1011.69
2017-09-30T06:41:31.769Z,1011.71
2017-09-30T06:42:40.733Z,1011.73
2017-09-30T06:43:50.024Z,1011.77
2017-09-30T06:44:59.318Z,1011.76
2017-09-30T06:46:08.294Z,1011.75
2017-09-30T06:47:18.033Z,1011.75
2017-09-30T06:48:27.068Z,1011.74
2017-09-30T06:49:36.685Z,1011.74
2017-09-30T06:50:45.711Z,1011.71
2017-09-30T06:51:54.385Z,1011.68
2017-09-30T06:53:03.357Z,1011.66
2017-09-30T06:54:12.344Z,1011.63
2017-09-30T06:55:21.944Z,1011.66
2017-09-30T06:56:31.257Z,1011.66
2017-09-30T06:57:40.558Z,1011.64
2017-09-30T06:58:49.976Z,1011.63
2017-09-30T07:00:02.184Z,1011.64
2017-09-30T07:01:10.989Z,1011.65
2017-09-30T07:02:19.963Z,1011.63
2017-09-30T07:03:29.286Z,1011.66
2017-09-30T07:04:38.259Z,1011.65
2017-09-30T07:05:47.249Z,1011.65
2017-09-30T07:06:56.334Z,1011.65
2017-09-30T07:08:05.306Z,1011.65
2017-09-30T07:09:14.040Z,1011.64
2017-09-30T07:10:23.008Z,1011.66
2017-09-30T07:11:31.670Z,1011.65
2017-09-30T07:12:41.116Z,1011.61
2017-09-30T07:13:50.409Z,1011.66
2017-09-30T07:14:59.780Z,1011.66
2017-09-30T07:16:08.753Z,1011.64
2017-09-30T07:17:17.511Z,1011.66
2017-09-30T07:18:26.317Z,1011.65
2017-09-30T07:19:35.602Z,1011.64
2017-09-30T07:20:44.571Z,1011.64
2017-09-30T07:21:53.850Z,1011.67
2017-09-30T07:23:03.142Z,1011.68
2017-09-30T07:24:12.110Z,1011.64
2017-09-30T07:25:21.084Z,1011.65
2017-09-30T07:26:30.373Z,1011.57
2017-09-30T07:27:39.354Z,1011.59
2017-09-30T07:28:48.331Z,1011.59
2017-09-30T07:29:57.662Z,1011.55
2017-09-30T07:31:06.941Z,1011.55
2017-09-30T07:32:15.602Z,1011.56
2017-09-30T07:33:25.537Z,1011.54
2017-09-30T07:34:34.818Z,1011.54
2017-09-30T07:35:43.678Z,1011.54
2017-09-30T07:36:52.342Z,1011.55
2017-09-30T07:38:01.622Z,1011.55
2017-09-30T07:39:10.603Z,1011.58
2017-09-30T07:40:19.887Z,1011.57
2017-09-30T07:41:29.088Z,1011.58
2017-09-30T07:42:38.372Z,1011.62
2017-09-30T07:43:47.351Z,1011.61
2017-09-30T07:44:56.379Z,1011.63
2017-09-30T07:46:05.676Z,1011.61
2017-09-30T07:47:15.120Z,1011.66
2017-09-30T07:48:23.801Z,1011.63
2017-09-30T07:49:33.091Z,1011.65
2017-09-30T07:50:42.698Z,1011.67
2017-09-30T07:51:52.304Z,1011.66
2017-09-30T07:53:02.070Z,1011.65
2017-09-30T07:54:10.734Z,1011.64
2017-09-30T07:55:19.699Z,1011.6
2017-09-30T07:56:28.697Z,1011.56
2017-09-30T07:57:37.366Z,1011.52
2017-09-30T07:58:46.138Z,1011.54
2017-09-30T07:59:54.802Z,1011.5
2017-09-30T08:01:04.728Z,1011.5
2017-09-30T08:02:14.076Z,1011.47
2017-09-30T08:03:23.698Z,1011.49
2017-09-30T08:04:33.156Z,1011.52
2017-09-30T08:05:42.139Z,1011.54
2017-09-30T08:06:51.133Z,1011.54
2017-09-30T08:08:00.749Z,1011.52
2017-09-30T08:09:09.735Z,1011.5
2017-09-30T08:10:18.516Z,1011.47
2017-09-30T08:11:27.561Z,1011.43
2017-09-30T08:12:37.173Z,1011.36
2017-09-30T08:13:46.155Z,1011.32
2017-09-30T08:14:55.462Z,1011.31
2017-09-30T08:16:04.746Z,1011.27
2017-09-30T08:17:14.684Z,1011.27
2017-09-30T08:18:24.186Z,1011.22
2017-09-30T08:19:33.470Z,1011.24
2017-09-30T08:20:43.097Z,1011.23
2017-09-30T08:21:52.122Z,1011.29
2017-09-30T08:23:01.549Z,1011.29
2017-09-30T08:24:10.208Z,1011.3
2017-09-30T08:25:19.499Z,1011.28
2017-09-30T08:26:28.773Z,1011.31
2017-09-30T08:27:38.044Z,1011.35
2017-09-30T08:28:47.014Z,1011.39
2017-09-30T08:29:56.384Z,1011.36
2017-09-30T08:31:05.982Z,1011.36
2017-09-30T08:32:15.000Z,1011.29
2017-09-30T08:33:24.977Z,1011.24
2017-09-30T08:34:34.283Z,1011.24
2017-09-30T08:35:43.261Z,1011.22
2017-09-30T08:36:51.999Z,1011.22
2017-09-30T08:38:01.348Z,1011.23
2017-09-30T08:39:10.630Z,1011.25
2017-09-30T08:40:19.931Z,1011.23
2017-09-30T08:41:29.655Z,1011.24
2017-09-30T08:42:38.314Z,1011.25
2017-09-30T08:43:47.033Z,1011.25
2017-09-30T08:44:56.319Z,1011.17
2017-09-30T08:46:05.285Z,1011.17
2017-09-30T08:47:14.578Z,1011.1
2017-09-30T08:48:23.871Z,1011.1
2017-09-30T08:49:32.835Z,1011.14
2017-09-30T08:50:41.804Z,1011.1
2017-09-30T08:51:50.827Z,1011.13
2017-09-30T08:52:59.839Z,1011.15
2017-09-30T08:54:08.816Z,1011.18
2017-09-30T08:55:17.818Z,1011.17
2017-09-30T08:56:26.499Z,1011.19
2017-09-30T08:57:35.174Z,1011.16
2017-09-30T08:58:43.849Z,1011.17
2017-09-30T08:59:52.825Z,1011.18
2017-09-30T09:01:01.483Z,1011.18
2017-09-30T09:02:10.741Z,1011.17
2017-09-30T09:03:20.350Z,1011.12
2017-09-30T09:04:29.663Z,1011.16
2017-09-30T09:05:38.626Z,1011.12
2017-09-30T09:06:47.600Z,1011.13
2017-09-30T09:07:56.881Z,1011.12
2017-09-30T09:09:06.243Z,1011.08
2017-09-30T09:10:15.534Z,1011.08
2017-09-30T09:11:24.514Z,1011.07
2017-09-30T09:12:33.811Z,1011.07
2017-09-30T09:13:42.626Z,1011.04
2017-09-30T09:14:52.245Z,1011.05
2017-09-30T09:16:01.889Z,1011.06
2017-09-30T09:17:10.588Z,1011.06
2017-09-30T09:18:19.566Z,1011.03
2017-09-30T09:19:28.705Z,1011.02
2017-09-30T09:20:38.699Z,1010.99
2017-09-30T09:21:48.074Z,1011
2017-09-30T09:22:57.058Z,1011.03
2017-09-30T09:24:06.043Z,1011.02
2017-09-30T09:25:14.946Z,1010.99
2017-09-30T09:26:23.928Z,1011.01
2017-09-30T09:27:32.589Z,1011.06
2017-09-30T09:28:41.569Z,1011.09
2017-09-30T09:29:50.559Z,1011.13
2017-09-30T09:31:00.329Z,1011.09
2017-09-30T09:32:09.301Z,1011.07
2017-09-30T09:33:17.987Z,1011.05
2017-09-30T09:34:26.666Z,1011.05
2017-09-30T09:35:35.966Z,1011.12
2017-09-30T09:36:44.798Z,1011.16
2017-09-30T09:37:54.088Z,1011.13
2017-09-30T09:39:03.110Z,1011.16
2017-09-30T09:40:12.096Z,1011.18
2017-09-30T09:41:22.024Z,1011.19
2017-09-30T09:42:31.163Z,1011.14
2017-09-30T09:43:40.266Z,1011.15
2017-09-30T09:44:48.958Z,1011.15
2017-09-30T09:45:57.627Z,1011.19
2017-09-30T09:47:06.925Z,1011.19
2017-09-30T09:48:16.367Z,1011.19
2017-09-30T09:49:25.685Z,1011.17
2017-09-30T09:50:34.717Z,1011.17
2017-09-30T09:51:43.705Z,1011.17
2017-09-30T09:52:52.366Z,1011.18
2017-09-30T09:54:01.509Z,1011.24
2017-09-30T09:55:10.176Z,1011.35
2017-09-30T09:56:19.472Z,1011.38
2017-09-30T09:57:28.768Z,1011.31
2017-09-30T09:58:37.814Z,1011.37
2017-09-30T09:59:46.472Z,1011.31
2017-09-30T10:00:55.773Z,1011.27
2017-09-30T10:02:05.054Z,1011.33
2017-09-30T10:03:14.080Z,1011.31
2017-09-30T10:04:23.114Z,1011.31
2017-09-30T10:05:32.200Z,1011.34
2017-09-30T10:06:40.908Z,1011.34
2017-09-30T10:07:50.526Z,1011.32
2017-09-30T10:08:59.546Z,1011.34
2017-09-30T10:10:08.872Z,1011.33
2017-09-30T10:11:18.152Z,1011.32
2017-09-30T10:12:27.481Z,1011.34
2017-09-30T10:13:36.455Z,1011.35
2017-09-30T10:14:45.151Z,1011.34
2017-09-30T10:15:54.160Z,1011.37
2017-09-30T10:17:03.506Z,1011.35
2017-09-30T10:18:12.537Z,1011.4
2017-09-30T10:19:21.215Z,1011.38
2017-09-30T10:20:30.557Z,1011.4
2017-09-30T10:21:39.869Z,1011.43
2017-09-30T10:22:48.695Z,1011.37
2017-09-30T10:23:57.366Z,1011.36
2017-09-30T10:25:06.343Z,1011.4
2017-09-30T10:26:15.442Z,1011.4
2017-09-30T10:27:24.879Z,1011.39
2017-09-30T10:28:33.718Z,1011.4
2017-09-30T10:29:43.354Z,1011.45
2017-09-30T10:30:52.332Z,1011.43
2017-09-30T10:32:01.037Z,1011.46
2017-09-30T10:33:10.126Z,1011.46
2017-09-30T10:34:19.241Z,1011.45
2017-09-30T10:35:28.569Z,1011.44
2017-09-30T10:36:38.507Z,1011.59
2017-09-30T10:37:47.496Z,1011.57
2017-09-30T10:38:56.477Z,1011.55
2017-09-30T10:40:05.760Z,1011.56
2017-09-30T10:41:15.353Z,1011.58
2017-09-30T10:42:24.343Z,1011.58
2017-09-30T10:43:33.653Z,1011.63
2017-09-30T10:44:42.666Z,1011.63
2017-09-30T10:45:51.490Z,1011.65
2017-09-30T10:47:01.428Z,1011.69
2017-09-30T10:48:10.463Z,1011.66
2017-09-30T10:49:19.446Z,1011.67
2017-09-30T10:50:28.419Z,1011.61
2017-09-30T10:51:37.570Z,1011.63
2017-09-30T10:52:46.595Z,1011.61
2017-09-30T10:53:55.895Z,1011.61
2017-09-30T10:55:05.509Z,1011.55
2017-09-30T10:56:14.488Z,1011.51
2017-09-30T10:57:23.830Z,1011.49
2017-09-30T10:58:32.828Z,1011.49
2017-09-30T10:59:42.120Z,1011.5
2017-09-30T11:00:51.416Z,1011.49
2017-09-30T11:02:00.724Z,1011.46
2017-09-30T11:03:10.015Z,1011.48
2017-09-30T11:04:18.996Z,1011.48
2017-09-30T11:05:28.672Z,1011.52
2017-09-30T11:06:37.972Z,1011.56
2017-09-30T11:07:47.607Z,1011.54
2017-09-30T11:08:56.698Z,1011.54
2017-09-30T11:10:05.670Z,1011.56
2017-09-30T11:11:18.008Z,1011.57
2017-09-30T11:12:26.669Z,1011.55
2017-09-30T11:13:35.980Z,1011.54
2017-09-30T11:14:44.958Z,1011.53
2017-09-30T11:15:53.962Z,1011.55
2017-09-30T11:17:02.943Z,1011.51
2017-09-30T11:18:11.934Z,1011.5
2017-09-30T11:19:21.231Z,1011.45
2017-09-30T11:20:30.530Z,1011.5
2017-09-30T11:21:39.840Z,1011.49
2017-09-30T11:22:49.460Z,1011.46
2017-09-30T11:23:58.765Z,1011.43
2017-09-30T11:25:07.756Z,1011.44
2017-09-30T11:26:16.727Z,1011.44
2017-09-30T11:27:25.711Z,1011.46
2017-09-30T11:28:35.020Z,1011.47
2017-09-30T11:29:44.013Z,1011.46
2017-09-30T11:30:52.750Z,1011.46
2017-09-30T11:32:02.671Z,1011.48
2017-09-30T11:33:11.341Z,1011.51
2017-09-30T11:34:20.316Z,1011.48
2017-09-30T11:35:28.975Z,1011.54
2017-09-30T11:36:37.942Z,1011.56
2017-09-30T11:37:46.944Z,1011.54
2017-09-30T11:38:55.940Z,1011.6
2017-09-30T11:40:04.610Z,1011.56
2017-09-30T11:41:13.909Z,1011.58
2017-09-30T11:42:23.232Z,1011.62
2017-09-30T11:43:32.545Z,1011.62
2017-09-30T11:44:41.521Z,1011.64
2017-09-30T11:45:50.183Z,1011.66
2017-09-30T11:46:59.170Z,1011.7
2017-09-30T11:48:08.175Z,1011.63
2017-09-30T11:49:17.162Z,1011.65
2017-09-30T11:50:26.465Z,1011.69
2017-09-30T11:51:35.787Z,1011.68
2017-09-30T11:52:44.823Z,1011.7
2017-09-30T11:53:55.104Z,1011.7
2017-09-30T11:55:03.768Z,1011.71
2017-09-30T11:56:12.452Z,1011.71
2017-09-30T11:57:21.440Z,1011.7
2017-09-30T11:58:31.036Z,1011.7
2017-09-30T11:59:40.038Z,1011.73
2017-09-30T12:00:49.659Z,1011.7
2017-09-30T12:01:58.642Z,1011.71
2017-09-30T12:03:08.267Z,1011.75
2017-09-30T12:04:17.573Z,1011.71
2017-09-30T12:05:26.307Z,1011.72
2017-09-30T12:06:35.276Z,1011.71
2017-09-30T12:07:44.883Z,1011.7
2017-09-30T12:08:54.182Z,1011.68
2017-09-30T12:10:02.844Z,1011.73
2017-09-30T12:11:11.830Z,1011.7
2017-09-30T12:12:20.842Z,1011.72
2017-09-30T12:13:29.831Z,1011.73
2017-09-30T12:14:39.189Z,1011.75
2017-09-30T12:15:48.496Z,1011.79
2017-09-30T12:16:58.112Z,1011.84
2017-09-30T12:18:07.100Z,1011.82
2017-09-30T12:19:16.088Z,1011.83
2017-09-30T12:20:25.078Z,1011.81
2017-09-30T12:21:33.753Z,1011.85
2017-09-30T12:22:43.062Z,1011.83
2017-09-30T12:23:52.080Z,1011.84
2017-09-30T12:25:01.105Z,1011.85
2017-09-30T12:26:09.759Z,1011.88
2017-09-30T12:27:18.424Z,1011.85
2017-09-30T12:28:27.717Z,1011.87
2017-09-30T12:29:36.713Z,1011.88
2017-09-30T12:30:45.704Z,1011.89
2017-09-30T12:31:55.010Z,1011.91
2017-09-30T12:33:03.999Z,1011.9
2017-09-30T12:34:12.993Z,1011.95
2017-09-30T12:35:21.656Z,1011.96
2017-09-30T12:36:30.337Z,1012.01
2017-09-30T12:37:39.633Z,1011.99
2017-09-30T12:38:48.918Z,1011.98
2017-09-30T12:39:57.625Z,1011.99
2017-09-30T12:41:06.611Z,1011.96
2017-09-30T12:42:16.220Z,1011.96
2017-09-30T12:43:24.905Z,1011.98
2017-09-30T12:44:33.898Z,1012
2017-09-30T12:45:42.867Z,1012.02
2017-09-30T12:46:51.844Z,1011.99
2017-09-30T12:48:00.511Z,1011.99
2017-09-30T12:49:09.507Z,1011.99
2017-09-30T12:50:18.489Z,1011.93
2017-09-30T12:51:27.779Z,1011.95
2017-09-30T12:52:36.767Z,1011.97
2017-09-30T12:53:45.747Z,1011.92
2017-09-30T12:54:54.442Z,1011.9
2017-09-30T12:56:04.053Z,1011.89
2017-09-30T12:57:13.665Z,1011.94
2017-09-30T12:58:22.657Z,1011.95
2017-09-30T12:59:32.271Z,1011.98
2017-09-30T13:00:40.965Z,1011.95
2017-09-30T13:01:50.266Z,1011.96
2017-09-30T13:02:58.958Z,1011.95
2017-09-30T13:04:07.958Z,1011.96
2017-09-30T13:05:17.259Z,1011.99
2017-09-30T13:06:26.235Z,1012
2017-09-30T13:07:35.223Z,1012.04
2017-09-30T13:08:44.210Z,1012.01
2017-09-30T13:09:52.919Z,1011.99
2017-09-30T13:11:01.928Z,1012
2017-09-30T13:12:10.957Z,1011.99
2017-09-30T13:13:20.258Z,1012
2017-09-30T13:14:29.267Z,1011.95
2017-09-30T13:15:38.572Z,1011.96
2017-09-30T13:16:47.274Z,1012
2017-09-30T13:17:56.579Z,1012.09
2017-09-30T13:19:05.578Z,1012.18
2017-09-30T13:20:14.578Z,1012.22
2017-09-30T13:21:23.885Z,1012.23
2017-09-30T13:22:33.186Z,1012.27
2017-09-30T13:23:42.506Z,1012.27
2017-09-30T13:24:51.512Z,1012.28
2017-09-30T13:26:00.507Z,1012.3
2017-09-30T13:27:09.505Z,1012.34
2017-09-30T13:28:18.186Z,1012.34
2017-09-30T13:29:27.205Z,1012.32
2017-09-30T13:30:36.208Z,1012.34
2017-09-30T13:31:45.215Z,1012.33
2017-09-30T13:32:54.212Z,1012.38
2017-09-30T13:34:03.526Z,1012.44
2017-09-30T13:35:12.507Z,1012.43
2017-09-30T13:36:21.171Z,1012.46
2017-09-30T13:37:29.848Z,1012.45
2017-09-30T13:38:38.535Z,1012.44
2017-09-30T13:39:48.164Z,1012.44
2017-09-30T13:40:56.897Z,1012.46
2017-09-30T13:42:05.563Z,1012.42
2017-09-30T13:43:14.544Z,1012.42
2017-09-30T13:44:24.468Z,1012.4
2017-09-30T13:45:34.088Z,1012.44
2017-09-30T13:46:43.395Z,1012.47
2017-09-30T13:47:52.713Z,1012.5
2017-09-30T13:49:01.711Z,1012.5
2017-09-30T13:50:10.374Z,1012.51
2017-09-30T13:51:19.370Z,1012.51
2017-09-30T13:52:28.706Z,1012.55
2017-09-30T13:53:38.008Z,1012.49
2017-09-30T13:54:46.992Z,1012.5
2017-09-30T13:55:55.967Z,1012.55
2017-09-30T13:57:04.968Z,1012.53
2017-09-30T13:58:14.595Z,1012.57
2017-09-30T13:59:23.278Z,1012.54